createdAt,value
2018-12-15T00:00:19.498Z,85.13
2018-12-15T00:02:56.667Z,84.99
2018-12-15T00:05:25.763Z,84.53
2018-12-15T00:08:08.251Z,84.48
2018-12-15T00:10:40.855Z,84.45
2018-12-15T00:13:13.853Z,85.12
2018-12-15T00:15:50.419Z,85.21
2018-12-15T00:18:26.531Z,85.29
2018-12-15T00:20:59.773Z,84.81
2018-12-15T00:23:36.571Z,85.21
2018-12-15T00:26:09.417Z,85.01
2018-12-15T00:28:46.186Z,84.47
2018-12-15T00:31:15.737Z,85.39
2018-12-15T00:33:48.014Z,84.59
2018-12-15T00:36:21.260Z,84.50
2018-12-15T00:38:58.811Z,84.38
2018-12-15T00:41:31.788Z,84.58
2018-12-15T00:44:04.613Z,85.30
2018-12-15T00:46:37.475Z,84.54
2018-12-15T00:49:08.349Z,85.12
2018-12-15T00:51:41.285Z,84.42
2018-12-15T00:56:39.432Z,84.92
2018-12-15T00:59:08.598Z,84.37
2018-12-15T01:01:41.706Z,84.65
2018-12-15T01:04:14.367Z,85.13
2018-12-15T01:06:47.476Z,84.37
2018-12-15T01:09:24.526Z,85.21
2018-12-15T01:12:01.378Z,84.48
2018-12-15T01:17:57.937Z,84.49
2018-12-15T01:20:30.683Z,85.25
2018-12-15T01:23:03.642Z,85.21
2018-12-15T01:25:40.181Z,85.18
2018-12-15T01:28:17.054Z,84.76
2018-12-15T01:30:50.057Z,85.31
2018-12-15T01:33:27.334Z,84.50
2018-12-15T01:36:03.930Z,85.17
2018-12-15T01:38:40.752Z,84.73
2018-12-15T01:41:13.526Z,84.39
2018-12-15T01:43:47.577Z,84.50
2018-12-15T01:46:20.353Z,84.87
2018-12-15T01:48:53.165Z,85.38
2018-12-15T01:51:25.945Z,85.19
2018-12-15T01:53:59.130Z,84.66
2018-12-15T01:56:36.195Z,84.53
2018-12-15T02:04:10.246Z,84.61
2018-12-15T02:06:46.393Z,84.83
2018-12-15T02:09:23.390Z,84.70
2018-12-15T02:12:00.210Z,85.35
2018-12-15T02:14:33.279Z,84.83
2018-12-15T02:17:05.454Z,85.28
2018-12-15T02:19:38.582Z,85.25
2018-12-15T02:22:11.328Z,84.46
2018-12-15T02:24:43.667Z,84.43
2018-12-15T02:27:16.351Z,84.41
2018-12-15T02:29:49.180Z,84.50
2018-12-15T02:32:26.255Z,84.95
2018-12-15T02:34:57.054Z,84.71
2018-12-15T02:37:34.071Z,85.00
2018-12-15T02:40:07.733Z,85.33
2018-12-15T02:42:44.337Z,85.37
2018-12-15T02:45:17.370Z,84.62
2018-12-15T02:47:50.253Z,84.64
2018-12-15T02:50:23.059Z,84.92
2018-12-15T02:52:59.954Z,84.56
2018-12-15T02:55:36.913Z,84.62
2018-12-15T02:58:13.804Z,84.67
2018-12-15T03:00:46.831Z,84.64
2018-12-15T03:03:19.797Z,84.89
2018-12-15T03:05:56.073Z,85.47
2018-12-15T03:08:32.861Z,85.52
2018-12-15T03:11:05.662Z,85.34
2018-12-15T03:13:36.530Z,85.18
2018-12-15T03:16:13.437Z,84.72
2018-12-15T03:18:50.147Z,85.57
2018-12-15T03:21:23.032Z,85.14
2018-12-15T03:24:00.063Z,85.33
2018-12-15T03:26:37.150Z,85.05
2018-12-15T03:29:08.078Z,84.86
2018-12-15T03:31:41.066Z,85.65
2018-12-15T03:34:17.289Z,85.63
2018-12-15T03:36:54.202Z,85.37
2018-12-15T03:39:26.964Z,84.99
2018-12-15T03:41:59.932Z,85.57
2018-12-15T03:44:32.734Z,85.33
2018-12-15T03:47:08.884Z,85.55
2018-12-15T03:49:45.807Z,85.46
2018-12-15T03:52:18.754Z,85.61
2018-12-15T03:54:51.554Z,85.83
2018-12-15T03:57:24.589Z,85.02
2018-12-15T04:00:01.228Z,85.35
2018-12-15T04:02:32.569Z,85.06
2018-12-15T04:05:08.946Z,85.80
2018-12-15T04:07:42.010Z,85.32
2018-12-15T04:10:19.162Z,85.42
2018-12-15T04:12:49.669Z,85.20
2018-12-15T04:15:22.753Z,85.98
2018-12-15T04:18:03.696Z,85.89
2018-12-15T04:20:33.730Z,85.14
2018-12-15T04:23:09.934Z,85.17
2018-12-15T04:25:42.821Z,85.74
2018-12-15T04:28:15.835Z,85.26
2018-12-15T04:30:48.778Z,85.21
2018-12-15T04:33:25.790Z,86.17
2018-12-15T04:35:56.339Z,85.57
2018-12-15T04:38:33.483Z,85.76
2018-12-15T04:41:10.253Z,85.55
2018-12-15T04:43:47.306Z,85.20
2018-12-15T04:46:19.979Z,85.23
2018-12-15T04:48:52.242Z,85.98
2018-12-15T04:51:24.954Z,85.22
2018-12-15T04:53:55.895Z,85.92
2018-12-15T04:56:32.742Z,85.26
2018-12-15T04:59:09.641Z,85.46
2018-12-15T05:01:40.430Z,85.51
2018-12-15T05:04:17.468Z,85.79
2018-12-15T05:06:54.414Z,85.91
2018-12-15T05:09:27.261Z,85.26
2018-12-15T05:12:00.113Z,85.61
2018-12-15T05:14:33.168Z,85.32
2018-12-15T05:17:10.159Z,85.14
2018-12-15T05:19:46.969Z,85.09
2018-12-15T05:22:23.998Z,85.32
2018-12-15T05:24:56.903Z,84.87
2018-12-15T05:27:33.955Z,84.98
2018-12-15T05:30:11.111Z,85.73
2018-12-15T05:32:44.476Z,84.91
2018-12-15T05:35:21.370Z,84.97
2018-12-15T05:37:57.608Z,84.91
2018-12-15T05:40:30.431Z,85.38
2018-12-15T05:43:01.293Z,84.81
2018-12-15T05:45:34.167Z,85.51
2018-12-15T05:48:11.650Z,84.65
2018-12-15T05:50:44.285Z,85.49
2018-12-15T05:53:16.469Z,84.61
2018-12-15T05:55:47.402Z,85.24
2018-12-15T05:58:24.247Z,85.24
2018-12-15T06:01:00.451Z,84.50
2018-12-15T06:03:33.579Z,85.34
2018-12-15T06:06:10.565Z,85.04
2018-12-15T06:08:41.567Z,85.12
2018-12-15T06:11:14.443Z,84.59
2018-12-15T06:23:46.019Z,84.06
2018-12-15T06:26:22.711Z,84.71
2018-12-15T06:28:59.319Z,84.16
2018-12-15T06:31:32.434Z,83.67
2018-12-15T06:34:09.475Z,84.24
2018-12-15T06:37:26.708Z,83.52
2018-12-15T06:39:58.975Z,84.39
2018-12-15T06:42:31.228Z,83.49
2018-12-15T06:45:03.999Z,84.13
2018-12-15T06:47:41.067Z,83.21
2018-12-15T06:50:13.663Z,83.38
2018-12-15T06:52:46.838Z,83.94
2018-12-15T06:55:16.151Z,83.74
2018-12-15T06:57:49.217Z,82.79
2018-12-15T07:00:26.059Z,82.77
2018-12-15T07:02:57.080Z,82.84
2018-12-15T07:05:29.830Z,83.61
2018-12-15T07:08:06.694Z,82.69
2018-12-15T07:10:39.683Z,83.22
2018-12-15T07:13:12.595Z,82.43
2018-12-15T07:15:46.706Z,82.99
2018-12-15T07:18:19.923Z,82.06
2018-12-15T07:20:53.002Z,81.93
2018-12-15T07:26:01.599Z,82.59
2018-12-15T07:28:34.844Z,81.92
2018-12-15T07:31:05.828Z,82.29
2018-12-15T07:33:42.633Z,81.56
2018-12-15T07:36:15.555Z,82.02
2018-12-15T07:38:48.399Z,81.17
2018-12-15T07:41:21.479Z,81.22
2018-12-15T07:43:54.414Z,81.06
2018-12-15T07:46:27.343Z,81.53
2018-12-15T07:49:00.211Z,81.46
2018-12-15T07:51:37.207Z,81.04
2018-12-15T07:54:10.023Z,80.76
2018-12-15T07:56:43.098Z,80.77
2018-12-15T07:59:19.951Z,79.98
2018-12-15T08:01:53.016Z,79.41
2018-12-15T08:04:26.282Z,80.28
2018-12-15T08:06:58.847Z,79.19
2018-12-15T08:09:29.543Z,79.66
2018-12-15T08:12:11.434Z,79.87
2018-12-15T08:14:47.682Z,78.93
2018-12-15T08:17:24.898Z,78.99
2018-12-15T08:20:01.675Z,78.73
2018-12-15T08:22:34.627Z,79.39
2018-12-15T08:25:08.354Z,78.47
2018-12-15T08:27:40.664Z,78.36
2018-12-15T08:30:17.759Z,78.55
2018-12-15T08:32:48.699Z,78.21
2018-12-15T08:35:25.913Z,78.29
2018-12-15T08:37:58.574Z,78.30
2018-12-15T08:40:35.710Z,77.85
2018-12-15T08:43:08.571Z,77.65
2018-12-15T08:45:45.649Z,78.19
2018-12-15T08:48:22.482Z,78.29
2018-12-15T08:50:51.895Z,77.70
2018-12-15T08:53:24.180Z,77.24
2018-12-15T08:55:55.339Z,77.60
2018-12-15T08:58:32.006Z,77.83
2018-12-15T09:01:04.903Z,77.44
2018-12-15T09:03:37.760Z,77.11
2018-12-15T09:06:14.779Z,77.12
2018-12-15T09:08:47.718Z,76.97
2018-12-15T09:11:20.855Z,77.30
2018-12-15T09:13:57.483Z,77.46
2018-12-15T09:16:33.755Z,76.92
2018-12-15T09:19:11.374Z,77.11
2018-12-15T09:21:48.812Z,77.44
2018-12-15T09:24:21.898Z,77.37
2018-12-15T09:26:58.587Z,76.85
2018-12-15T09:29:35.411Z,77.31
2018-12-15T09:32:12.667Z,76.44
2018-12-15T09:34:50.531Z,76.36
2018-12-15T09:37:23.331Z,76.48
2018-12-15T09:40:00.162Z,76.17
2018-12-15T09:42:33.118Z,76.53
2018-12-15T09:45:06.017Z,76.02
2018-12-15T09:47:42.623Z,76.41
2018-12-15T09:50:15.536Z,75.84
2018-12-15T09:52:48.751Z,75.69
2018-12-15T09:55:21.770Z,75.89
2018-12-15T09:57:54.826Z,75.15
2018-12-15T10:00:27.911Z,75.72
2018-12-15T10:03:00.787Z,75.41
2018-12-15T10:05:33.691Z,75.11
2018-12-15T10:08:10.495Z,75.08
2018-12-15T10:10:43.566Z,74.75
2018-12-15T10:13:20.537Z,74.68
2018-12-15T10:15:53.452Z,74.65
2018-12-15T10:18:25.694Z,74.26
2018-12-15T10:21:02.687Z,74.37
2018-12-15T10:23:35.527Z,73.98
2018-12-15T10:26:08.519Z,73.19
2018-12-15T10:28:45.346Z,72.84
2018-12-15T10:31:23.535Z,73.28
2018-12-15T10:33:59.965Z,73.20
2018-12-15T10:36:32.843Z,72.38
2018-12-15T10:39:10.318Z,72.40
2018-12-15T10:41:46.862Z,72.17
2018-12-15T10:44:19.460Z,72.29
2018-12-15T10:46:52.443Z,72.03
2018-12-15T10:49:30.664Z,71.29
2018-12-15T10:51:59.847Z,71.54
2018-12-15T10:54:37.535Z,71.03
2018-12-15T10:57:14.886Z,71.65
2018-12-15T10:59:47.819Z,71.12
2018-12-15T11:02:24.115Z,70.69
2018-12-15T11:04:57.058Z,70.74
2018-12-15T11:07:26.214Z,70.82
2018-12-15T11:10:02.587Z,70.15
2018-12-15T11:12:35.494Z,70.41
2018-12-15T11:15:12.562Z,70.55
2018-12-15T11:17:45.416Z,70.67
2018-12-15T11:20:21.555Z,69.64
2018-12-15T11:23:07.906Z,69.69
2018-12-15T11:25:44.559Z,69.39
2018-12-15T11:28:21.415Z,69.10
2018-12-15T11:30:54.258Z,68.97
2018-12-15T11:33:31.095Z,69.56
2018-12-15T11:36:03.859Z,68.97
2018-12-15T11:38:40.843Z,69.01
2018-12-15T11:41:13.691Z,68.45
2018-12-15T11:43:46.775Z,68.37
2018-12-15T11:46:19.384Z,68.24
2018-12-15T11:48:56.331Z,68.71
2018-12-15T11:52:04.341Z,68.55
2018-12-15T11:54:36.915Z,68.08
2018-12-15T11:57:09.599Z,67.42
2018-12-15T11:59:43.060Z,68.40
2018-12-15T12:02:19.426Z,67.57
2018-12-15T12:04:52.475Z,67.77
2018-12-15T12:07:25.422Z,67.98
2018-12-15T12:09:56.559Z,67.50
2018-12-15T12:12:30.220Z,68.02
2018-12-15T12:15:07.586Z,67.07
2018-12-15T12:17:44.153Z,67.63
2018-12-15T12:20:21.024Z,67.14
2018-12-15T12:22:58.159Z,66.93
2018-12-15T12:25:35.018Z,66.96
2018-12-15T12:28:11.971Z,66.61
2018-12-15T12:30:49.018Z,67.35
2018-12-15T12:33:21.714Z,66.25
2018-12-15T12:38:24.439Z,66.50
2018-12-15T12:40:57.482Z,66.39
2018-12-15T12:43:30.298Z,67.14
2018-12-15T12:46:03.296Z,66.78
2018-12-15T12:48:36.422Z,67.00
2018-12-15T12:51:09.443Z,66.55
2018-12-15T12:53:42.536Z,67.22
2018-12-15T12:56:13.681Z,67.03
2018-12-15T12:58:50.691Z,66.60
2018-12-15T13:01:26.969Z,66.64
2018-12-15T13:03:59.075Z,66.36
2018-12-15T13:06:32.289Z,66.62
2018-12-15T13:09:09.259Z,66.24
2018-12-15T13:11:46.203Z,66.58
2018-12-15T13:14:26.417Z,65.99
2018-12-15T13:16:58.935Z,66.59
2018-12-15T13:19:35.843Z,66.20
2018-12-15T13:22:08.964Z,65.95
2018-12-15T13:24:45.957Z,65.74
2018-12-15T13:27:15.235Z,66.68
2018-12-15T13:29:47.774Z,66.42
2018-12-15T13:32:20.655Z,66.49
2018-12-15T13:34:57.795Z,65.96
2018-12-15T13:37:34.734Z,65.93
2018-12-15T13:45:08.794Z,66.84
2018-12-15T13:47:41.643Z,66.48
2018-12-15T13:50:14.611Z,66.47
2018-12-15T13:52:51.702Z,66.67
2018-12-15T13:55:28.903Z,66.32
2018-12-15T13:58:05.832Z,66.86
2018-12-15T14:00:42.456Z,67.11
2018-12-15T14:03:15.375Z,66.34
2018-12-15T14:05:48.375Z,67.08
2018-12-15T14:08:21.587Z,66.94
2018-12-15T14:10:54.730Z,66.75
2018-12-15T14:13:27.660Z,66.78
2018-12-15T14:15:59.901Z,66.70
2018-12-15T14:18:32.851Z,66.76
2018-12-15T14:21:05.277Z,66.63
2018-12-15T14:23:41.815Z,67.86
2018-12-15T14:26:18.693Z,67.91
2018-12-15T14:28:55.847Z,67.06
2018-12-15T14:31:28.942Z,67.38
2018-12-15T14:34:01.474Z,67.96
2018-12-15T14:36:38.382Z,67.72
2018-12-15T14:39:15.175Z,67.67
2018-12-15T14:41:51.428Z,68.68
2018-12-15T14:44:24.447Z,68.30
2018-12-15T14:47:01.403Z,68.76
2018-12-15T14:49:38.533Z,67.94
2018-12-15T14:52:14.983Z,69.07
2018-12-15T14:54:51.870Z,68.51
2018-12-15T14:57:28.970Z,68.30
2018-12-15T15:00:01.363Z,68.74
2018-12-15T15:02:38.636Z,68.29
2018-12-15T15:05:11.840Z,69.24
2018-12-15T15:07:44.728Z,69.18
2018-12-15T15:10:15.235Z,69.14
2018-12-15T15:12:48.136Z,69.29
2018-12-15T15:15:21.212Z,68.97
2018-12-15T15:17:53.915Z,69.66
2018-12-15T15:20:29.811Z,69.96
2018-12-15T15:23:04.263Z,69.19
2018-12-15T15:25:37.451Z,69.22
2018-12-15T15:28:10.218Z,70.01
2018-12-15T15:30:43.111Z,69.37
2018-12-15T15:33:16.704Z,70.23
2018-12-15T15:35:50.855Z,69.50
2018-12-15T15:38:23.562Z,69.69
2018-12-15T15:41:01.186Z,70.55
2018-12-15T15:43:34.608Z,70.54
2018-12-15T15:46:07.488Z,70.25
2018-12-15T15:48:44.303Z,70.89
2018-12-15T15:51:17.123Z,70.91
2018-12-15T15:53:47.914Z,69.84
2018-12-15T15:56:25.100Z,70.89
2018-12-15T15:58:54.577Z,70.73
2018-12-15T16:01:34.963Z,70.37
2018-12-15T16:04:30.787Z,70.46
2018-12-15T16:07:04.173Z,71.24
2018-12-15T16:09:33.708Z,70.97
2018-12-15T16:12:05.224Z,71.10
2018-12-15T16:14:38.484Z,71.22
2018-12-15T16:17:07.883Z,71.39
2018-12-15T16:19:41.348Z,71.02
2018-12-15T16:22:18.658Z,71.05
2018-12-15T16:24:56.213Z,71.11
2018-12-15T16:27:27.055Z,72.08
2018-12-15T16:29:59.670Z,71.75
2018-12-15T16:32:36.591Z,71.53
2018-12-15T16:35:13.318Z,71.60
2018-12-15T16:37:46.169Z,72.04
2018-12-15T16:40:15.795Z,71.88
2018-12-15T16:42:52.808Z,72.24
2018-12-15T16:45:30.558Z,71.43
2018-12-15T16:48:07.555Z,71.60
2018-12-15T16:50:40.718Z,71.54
2018-12-15T16:53:18.294Z,72.26
2018-12-15T16:55:55.476Z,71.56
2018-12-15T16:58:24.983Z,71.63
2018-12-15T17:01:00.020Z,71.77
2018-12-15T17:03:32.680Z,71.85
2018-12-15T17:06:03.676Z,72.85
2018-12-15T17:08:40.867Z,72.01
2018-12-15T17:11:14.543Z,71.76
2018-12-15T17:13:52.513Z,72.97
2018-12-15T17:16:29.287Z,72.59
2018-12-15T17:19:06.255Z,72.81
2018-12-15T17:21:37.053Z,73.60
2018-12-15T17:24:13.760Z,73.76
2018-12-15T17:26:46.743Z,73.09
2018-12-15T17:29:19.669Z,73.48
2018-12-15T17:31:56.495Z,73.96
2018-12-15T17:34:33.229Z,74.07
2018-12-15T17:37:06.104Z,73.76
2018-12-15T17:39:42.911Z,74.53
2018-12-15T17:42:19.858Z,73.86
2018-12-15T17:44:56.892Z,74.62
2018-12-15T17:47:33.744Z,74.49
2018-12-15T17:50:07.630Z,74.84
2018-12-15T17:52:41.067Z,74.77
2018-12-15T17:55:12.720Z,75.01
2018-12-15T17:57:45.654Z,75.62
2018-12-15T18:00:22.372Z,75.62
2018-12-15T18:02:59.114Z,75.40
2018-12-15T18:05:35.863Z,76.18
2018-12-15T18:08:08.491Z,76.29
2018-12-15T18:10:38.091Z,76.47
2018-12-15T18:13:12.174Z,76.55
2018-12-15T18:15:43.406Z,76.66
2018-12-15T18:18:16.703Z,77.28
2018-12-15T18:20:50.313Z,77.35
2018-12-15T18:23:23.593Z,78.04
2018-12-15T18:26:00.247Z,78.14
2018-12-15T18:28:33.293Z,77.88
2018-12-15T18:31:11.203Z,77.83
2018-12-15T18:33:44.007Z,78.27
2018-12-15T18:36:17.334Z,78.31
2018-12-15T18:38:50.912Z,78.48
2018-12-15T18:41:24.071Z,78.61
2018-12-15T18:43:54.955Z,78.73
2018-12-15T18:46:27.735Z,78.81
2018-12-15T19:16:38.155Z,80.97
2018-12-15T19:19:11.100Z,81.22
2018-12-15T19:21:44.299Z,81.23
2018-12-15T19:24:17.317Z,81.39
2018-12-15T19:26:50.263Z,81.51
2018-12-15T19:29:27.219Z,81.95
2018-12-15T19:31:59.963Z,81.71
2018-12-15T19:34:36.925Z,82.15
2018-12-15T19:37:09.623Z,82.32
2018-12-15T19:39:42.663Z,82.15
2018-12-15T19:42:15.615Z,82.33
2018-12-15T19:44:52.635Z,82.47
2018-12-15T19:47:25.575Z,82.40
2018-12-15T19:49:58.829Z,82.56
2018-12-15T19:52:35.582Z,82.68
2018-12-15T19:55:08.704Z,82.88
2018-12-15T19:57:41.670Z,83.03
2018-12-15T20:00:18.739Z,83.28
2018-12-15T20:02:51.711Z,83.35
2018-12-15T20:05:22.611Z,83.33
2018-12-15T20:07:55.855Z,83.44
2018-12-15T20:10:28.867Z,83.74
2018-12-15T20:13:01.591Z,84.16
2018-12-15T20:15:34.800Z,83.94
2018-12-15T20:18:12.564Z,83.94
2018-12-15T20:20:45.479Z,84.05
2018-12-15T20:23:16.711Z,84.32
2018-12-15T20:25:53.807Z,84.13
2018-12-15T20:28:26.534Z,84.31
2018-12-15T20:30:59.576Z,84.28
2018-12-15T20:33:32.409Z,84.33
2018-12-15T20:36:05.295Z,84.28
2018-12-15T20:38:40.873Z,84.36
2018-12-15T20:41:14.312Z,84.54
2018-12-15T20:43:47.203Z,84.34
2018-12-15T20:46:20.279Z,84.51
2018-12-15T20:48:57.535Z,84.50
2018-12-15T20:51:30.672Z,84.84
2018-12-15T20:54:03.883Z,84.62
2018-12-15T20:56:38.950Z,84.68
2018-12-15T20:59:11.955Z,84.77
2018-12-15T21:01:43.059Z,84.92
2018-12-15T21:04:16.459Z,84.92
2018-12-15T21:06:49.630Z,85.10
2018-12-15T21:09:22.439Z,84.93
2018-12-15T21:11:53.556Z,84.77
2018-12-15T21:14:31.795Z,84.95
2018-12-15T21:17:08.498Z,85.22
2018-12-15T21:19:39.494Z,85.04
2018-12-15T21:22:16.533Z,85.10
2018-12-15T21:24:49.307Z,85.18
2018-12-15T21:27:22.371Z,84.99
2018-12-15T21:29:59.639Z,84.98
2018-12-15T21:32:36.294Z,85.31
2018-12-15T21:35:09.186Z,85.33
2018-12-15T21:37:42.320Z,85.33
2018-12-15T21:40:15.374Z,85.44
2018-12-15T21:42:48.597Z,85.31
2018-12-15T21:45:21.435Z,85.27
2018-12-15T21:47:57.531Z,85.29
2018-12-15T21:50:31.359Z,85.46
2018-12-15T21:53:04.270Z,85.35
2018-12-15T21:55:36.931Z,85.49
2018-12-15T21:58:10.578Z,85.34
2018-12-15T22:00:43.755Z,85.54
2018-12-15T22:03:16.416Z,85.43
2018-12-15T22:05:53.092Z,85.37
2018-12-15T22:08:26.279Z,85.36
2018-12-15T22:10:58.992Z,85.40
2018-12-15T22:13:30.063Z,85.27
2018-12-15T22:16:03.198Z,85.39
2018-12-15T22:18:35.870Z,85.35
2018-12-15T22:21:13.077Z,85.40
2018-12-15T22:23:46.002Z,85.38
2018-12-15T22:26:19.015Z,85.31
2018-12-15T22:28:52.078Z,85.38
2018-12-15T22:31:24.184Z,85.29
2018-12-15T22:33:57.286Z,85.44
2018-12-15T22:36:30.115Z,85.56
2018-12-15T22:39:03.635Z,85.48
2018-12-15T22:41:36.155Z,85.42
2018-12-15T22:44:09.207Z,85.45
2018-12-15T22:46:42.011Z,85.55
2018-12-15T22:49:14.901Z,85.81
2018-12-15T22:51:47.907Z,85.68
2018-12-15T22:54:24.142Z,85.91
2018-12-15T22:56:57.232Z,85.91
2018-12-15T22:59:30.131Z,85.86
2018-12-15T23:02:03.731Z,85.76
2018-12-15T23:04:40.321Z,85.61
2018-12-15T23:07:13.112Z,85.62
2018-12-15T23:09:46.253Z,85.78
2018-12-15T23:12:19.217Z,85.79
2018-12-15T23:14:52.153Z,85.73
2018-12-15T23:17:29.259Z,85.81
2018-12-15T23:20:07.732Z,85.96
2018-12-15T23:22:38.163Z,85.81
2018-12-15T23:25:15.001Z,85.76
2018-12-15T23:27:48.237Z,85.73
2018-12-15T23:30:19.158Z,85.90
2018-12-15T23:32:52.262Z,86.00
2018-12-15T23:35:29.291Z,85.76
2018-12-15T23:38:02.441Z,85.81
2018-12-15T23:40:35.352Z,85.92
2018-12-15T23:43:12.297Z,86.12
2018-12-15T23:45:45.172Z,85.85
2018-12-15T23:48:18.059Z,85.90
2018-12-15T23:50:50.735Z,85.83
2018-12-15T23:53:22.974Z,85.74
2018-12-15T23:55:55.998Z,85.65
2018-12-15T23:58:32.916Z,85.54
